sensor_id;sensor_type;location;lat;lon;timestamp;pressure;altitude;pressure_sealevel;temperature;humidity
10852;BME280;5479;52.046;6.314;2023-02-15T00:01:49;102893.50;;;1.73;100.00
10852;BME280;5479;52.046;6.314;2023-02-15T00:04:18;102896.91;;;1.69;100.00
10852;BME280;5479;52.046;6.314;2023-02-15T00:06:48;102886.47;;;1.69;100.00
10852;BME280;5479;52.046;6.314;2023-02-15T00:09:16;102891.72;;;1.72;100.00
10852;BME280;5479;52.046;6.314;2023-02-15T00:11:44;102883.94;;;1.73;100.00
10852;BME280;5479;52.046;6.314;2023-02-15T00:14:18;102886.47;;;1.69;100.00
10852;BME280;5479;52.046;6.314;2023-02-15T00:16:48;102889.94;;;1.66;100.00
10852;BME280;5479;52.046;6.314;2023-02-15T00:19:18;102886.47;;;1.69;100.00
10852;BME280;5479;52.046;6.314;2023-02-15T00:21:48;102882.16;;;1.71;100.00
10852;BME280;5479;52.046;6.314;2023-02-15T00:24:18;102877.78;;;1.70;100.00
10852;BME280;5479;52.046;6.314;2023-02-15T00:26:47;102888.19;;;1.67;100.00
10852;BME280;5479;52.046;6.314;2023-02-15T00:29:16;102876.00;;;1.64;100.00
10852;BME280;5479;52.046;6.314;2023-02-15T00:31:45;102872.47;;;1.61;100.00
10852;BME280;5479;52.046;6.314;2023-02-15T00:34:15;102864.75;;;1.74;100.00
10852;BME280;5479;52.046;6.314;2023-02-15T00:36:44;102864.88;;;1.83;100.00
10852;BME280;5479;52.046;6.314;2023-02-15T00:39:14;102865.72;;;1.82;100.00
10852;BME280;5479;52.046;6.314;2023-02-15T00:41:42;102852.59;;;1.75;100.00
10852;BME280;5479;52.046;6.314;2023-02-15T00:44:10;102856.84;;;1.67;100.00
10852;BME280;5479;52.046;6.314;2023-02-15T00:46:39;102860.25;;;1.57;100.00
10852;BME280;5479;52.046;6.314;2023-02-15T00:49:06;102850.59;;;1.50;100.00
10852;BME280;5479;52.046;6.314;2023-02-15T00:51:34;102848.78;;;1.41;100.00
10852;BME280;5479;52.046;6.314;2023-02-15T00:54:02;102851.50;;;1.52;100.00
10852;BME280;5479;52.046;6.314;2023-02-15T00:56:32;102850.50;;;1.41;100.00
10852;BME280;5479;52.046;6.314;2023-02-15T00:58:59;102851.44;;;1.49;100.00
10852;BME280;5479;52.046;6.314;2023-02-15T01:01:28;102853.19;;;1.47;100.00
10852;BME280;5479;52.046;6.314;2023-02-15T01:03:56;102861.66;;;1.28;100.00
10852;BME280;5479;52.046;6.314;2023-02-15T01:06:24;102867.59;;;1.16;100.00
10852;BME280;5479;52.046;6.314;2023-02-15T01:08:52;102862.31;;;1.08;100.00
10852;BME280;5479;52.046;6.314;2023-02-15T01:11:22;102864.03;;;1.06;100.00
10852;BME280;5479;52.046;6.314;2023-02-15T01:13:53;102859.69;;;1.08;100.00
10852;BME280;5479;52.046;6.314;2023-02-15T01:16:21;102864.91;;;1.08;100.00
10852;BME280;5479;52.046;6.314;2023-02-15T01:18:49;102860.53;;;1.07;100.00
10852;BME280;5479;52.046;6.314;2023-02-15T01:21:19;102855.41;;;1.12;100.00
10852;BME280;5479;52.046;6.314;2023-02-15T01:23:48;102852.94;;;1.27;100.00
10852;BME280;5479;52.046;6.314;2023-02-15T01:26:16;102845.16;;;1.30;100.00
10852;BME280;5479;52.046;6.314;2023-02-15T01:28:45;102853.78;;;1.26;100.00
10852;BME280;5479;52.046;6.314;2023-02-15T01:31:16;102846.75;;;1.19;100.00
10852;BME280;5479;52.046;6.314;2023-02-15T01:33:45;102852.88;;;1.19;100.00
10852;BME280;5479;52.046;6.314;2023-02-15T01:36:13;102844.16;;;1.17;100.00
10852;BME280;5479;52.046;6.314;2023-02-15T01:38:41;102842.34;;;1.13;100.00
10852;BME280;5479;52.046;6.314;2023-02-15T01:41:09;102840.56;;;1.09;100.00
10852;BME280;5479;52.046;6.314;2023-02-15T01:43:52;102834.47;;;1.09;100.00
10852;BME280;5479;52.046;6.314;2023-02-15T01:46:26;102819.66;;;1.06;100.00
10852;BME280;5479;52.046;6.314;2023-02-15T01:48:59;102817.91;;;1.05;100.00
10852;BME280;5479;52.046;6.314;2023-02-15T01:51:31;102816.19;;;1.07;100.00
10852;BME280;5479;52.046;6.314;2023-02-15T01:54:04;102817.84;;;1.02;100.00
10852;BME280;5479;52.046;6.314;2023-02-15T01:56:35;102813.44;;;0.95;100.00
10852;BME280;5479;52.046;6.314;2023-02-15T01:59:07;102817.69;;;0.87;100.00
10852;BME280;5479;52.046;6.314;2023-02-15T02:01:38;102811.50;;;0.79;100.00
10852;BME280;5479;52.046;6.314;2023-02-15T02:04:11;102807.13;;;0.77;100.00
10852;BME280;5479;52.046;6.314;2023-02-15T02:06:41;102808.75;;;0.70;100.00
10852;BME280;5479;52.046;6.314;2023-02-15T02:09:09;102799.19;;;0.69;100.00
10852;BME280;5479;52.046;6.314;2023-02-15T02:11:39;102800.00;;;0.64;100.00
10852;BME280;5479;52.046;6.314;2023-02-15T02:14:09;102794.91;;;0.74;100.00
10852;BME280;5479;52.046;6.314;2023-02-15T02:16:44;102792.31;;;0.76;100.00
10852;BME280;5479;52.046;6.314;2023-02-15T02:19:35;102783.47;;;0.65;100.00
10852;BME280;5479;52.046;6.314;2023-02-15T02:22:37;102785.16;;;0.58;100.00
10852;BME280;5479;52.046;6.314;2023-02-15T02:25:35;102793.72;;;0.51;100.00
10852;BME280;5479;52.046;6.314;2023-02-15T02:28:27;102791.94;;;0.47;100.00
10852;BME280;5479;52.046;6.314;2023-02-15T02:31:15;102782.34;;;0.46;100.00
10852;BME280;5479;52.046;6.314;2023-02-15T02:33:54;102784.13;;;0.47;100.00
10852;BME280;5479;52.046;6.314;2023-02-15T02:36:30;102779.75;;;0.46;100.00
10852;BME280;5479;52.046;6.314;2023-02-15T02:39:14;102782.34;;;0.46;100.00
10852;BME280;5479;52.046;6.314;2023-02-15T02:41:50;102781.50;;;0.45;100.00
10852;BME280;5479;52.046;6.314;2023-02-15T02:44:26;102782.31;;;0.41;100.00
10852;BME280;5479;52.046;6.314;2023-02-15T02:46:58;102784.84;;;0.37;100.00
10852;BME280;5479;52.046;6.314;2023-02-15T02:49:32;102793.47;;;0.31;100.00
10852;BME280;5479;52.046;6.314;2023-02-15T02:52:01;102776.00;;;0.26;100.00
10852;BME280;5479;52.046;6.314;2023-02-15T02:54:30;102773.44;;;0.29;100.00
10852;BME280;5479;52.046;6.314;2023-02-15T02:57:04;102775.31;;;0.37;100.00
10852;BME280;5479;52.046;6.314;2023-02-15T02:59:39;102762.28;;;0.37;100.00
10852;BME280;5479;52.046;6.314;2023-02-15T03:02:13;102761.34;;;0.34;100.00
10852;BME280;5479;52.046;6.314;2023-02-15T03:04:48;102763.06;;;0.32;100.00
10852;BME280;5479;52.046;6.314;2023-02-15T03:07:26;102761.25;;;0.28;100.00
10852;BME280;5479;52.046;6.314;2023-02-15T03:09:57;102763.03;;;0.29;100.00
10852;BME280;5479;52.046;6.314;2023-02-15T03:12:29;102761.31;;;0.31;100.00
10852;BME280;5479;52.046;6.314;2023-02-15T03:15:01;102759.53;;;0.27;100.00
10852;BME280;5479;52.046;6.314;2023-02-15T03:17:32;102750.78;;;0.25;100.00
10852;BME280;5479;52.046;6.314;2023-02-15T03:20:07;102759.44;;;0.21;100.00
10852;BME280;5479;52.046;6.314;2023-02-15T03:22:39;102748.03;;;0.14;100.00
10852;BME280;5479;52.046;6.314;2023-02-15T03:25:14;102757.53;;;0.09;100.00
10852;BME280;5479;52.046;6.314;2023-02-15T03:27:46;102753.97;;;0.03;100.00
10852;BME280;5479;52.046;6.314;2023-02-15T03:30:19;102751.25;;;-0.04;100.00
10852;BME280;5479;52.046;6.314;2023-02-15T03:32:49;102745.16;;;-0.06;100.00
10852;BME280;5479;52.046;6.314;2023-02-15T03:35:21;102739.94;;;-0.06;100.00
10852;BME280;5479;52.046;6.314;2023-02-15T03:37:54;102742.50;;;-0.07;100.00
10852;BME280;5479;52.046;6.314;2023-02-15T03:40:29;102733.78;;;-0.11;100.00
10852;BME280;5479;52.046;6.314;2023-02-15T03:43:19;102741.56;;;-0.12;100.00
10852;BME280;5479;52.046;6.314;2023-02-15T03:45:52;102731.09;;;-0.17;100.00
10852;BME280;5479;52.046;6.314;2023-02-15T03:48:26;102740.69;;;-0.14;100.00
10852;BME280;5479;52.046;6.314;2023-02-15T03:51:00;102739.75;;;-0.18;100.00
10852;BME280;5479;52.046;6.314;2023-02-15T03:53:48;102737.97;;;-0.19;100.00
10852;BME280;5479;52.046;6.314;2023-02-15T03:56:17;102731.00;;;-0.23;100.00
10852;BME280;5479;52.046;6.314;2023-02-15T03:58:45;102727.50;;;-0.25;100.00
10852;BME280;5479;52.046;6.314;2023-02-15T04:01:34;102727.41;;;-0.31;100.00
10852;BME280;5479;52.046;6.314;2023-02-15T04:04:28;102730.81;;;-0.35;100.00
10852;BME280;5479;52.046;6.314;2023-02-15T04:07:00;102727.31;;;-0.35;100.00
10852;BME280;5479;52.046;6.314;2023-02-15T04:09:28;102721.25;;;-0.36;100.00
10852;BME280;5479;52.046;6.314;2023-02-15T04:12:14;102716.88;;;-0.37;100.00
10852;BME280;5479;52.046;6.314;2023-02-15T04:14:42;102722.03;;;-0.40;100.00
10852;BME280;5479;52.046;6.314;2023-02-15T04:17:27;102726.41;;;-0.39;100.00
10852;BME280;5479;52.046;6.314;2023-02-15T04:19:56;102721.19;;;-0.39;100.00
10852;BME280;5479;52.046;6.314;2023-02-15T04:22:43;102723.78;;;-0.39;100.00
10852;BME280;5479;52.046;6.314;2023-02-15T04:25:29;102715.03;;;-0.44;100.00
10852;BME280;5479;52.046;6.314;2023-02-15T04:27:57;102716.00;;;-0.37;100.00
10852;BME280;5479;52.046;6.314;2023-02-15T04:30:25;102716.97;;;-0.32;100.00
10852;BME280;5479;52.046;6.314;2023-02-15T04:32:53;102707.38;;;-0.35;100.00
10852;BME280;5479;52.046;6.314;2023-02-15T04:35:21;102715.09;;;-0.41;100.00
10852;BME280;5479;52.046;6.314;2023-02-15T04:37:51;102709.84;;;-0.44;100.00
10852;BME280;5479;52.046;6.314;2023-02-15T04:40:19;102701.13;;;-0.46;100.00
10852;BME280;5479;52.046;6.314;2023-02-15T04:42:47;102701.13;;;-0.46;100.00
10852;BME280;5479;52.046;6.314;2023-02-15T04:45:15;102704.56;;;-0.47;100.00
10852;BME280;5479;52.046;6.314;2023-02-15T04:47:43;102697.66;;;-0.45;100.00
10852;BME280;5479;52.046;6.314;2023-02-15T04:50:11;102696.81;;;-0.44;100.00
10852;BME280;5479;52.046;6.314;2023-02-15T04:52:39;102695.09;;;-0.43;100.00
10852;BME280;5479;52.046;6.314;2023-02-15T04:55:08;102705.69;;;-0.33;100.00
10852;BME280;5479;52.046;6.314;2023-02-15T04:57:36;102702.28;;;-0.27;100.00
10852;BME280;5479;52.046;6.314;2023-02-15T05:00:05;102701.31;;;-0.34;100.00
10852;BME280;5479;52.046;6.314;2023-02-15T05:02:35;102696.09;;;-0.35;100.00
10852;BME280;5479;52.046;6.314;2023-02-15T05:05:03;102701.25;;;-0.37;100.00
10852;BME280;5479;52.046;6.314;2023-02-15T05:07:31;102695.16;;;-0.37;100.00
10852;BME280;5479;52.046;6.314;2023-02-15T05:09:59;102694.44;;;-0.29;100.00
10852;BME280;5479;52.046;6.314;2023-02-15T05:12:28;102696.25;;;-0.25;100.00
10852;BME280;5479;52.046;6.314;2023-02-15T05:14:56;102686.78;;;-0.18;100.00
10852;BME280;5479;52.046;6.314;2023-02-15T05:17:24;102688.66;;;-0.10;100.00
10852;BME280;5479;52.046;6.314;2023-02-15T05:19:51;102680.94;;;-0.04;100.00
10852;BME280;5479;52.046;6.314;2023-02-15T05:22:19;102679.13;;;-0.08;100.00
10852;BME280;5479;52.046;6.314;2023-02-15T05:24:47;102682.63;;;-0.07;100.00
10852;BME280;5479;52.046;6.314;2023-02-15T05:27:34;102683.38;;;-0.14;100.00
10852;BME280;5479;52.046;6.314;2023-02-15T05:30:19;102691.22;;;-0.13;100.00
10852;BME280;5479;52.046;6.314;2023-02-15T05:32:47;102699.00;;;-0.14;100.00
10852;BME280;5479;52.046;6.314;2023-02-15T05:35:16;102690.31;;;-0.16;100.00
10852;BME280;5479;52.046;6.314;2023-02-15T05:37:44;102681.53;;;-0.23;100.00
10852;BME280;5479;52.046;6.314;2023-02-15T05:40:12;102679.72;;;-0.27;100.00
10852;BME280;5479;52.046;6.314;2023-02-15T05:42:41;102691.88;;;-0.27;100.00
10852;BME280;5479;52.046;6.314;2023-02-15T05:45:09;102678.88;;;-0.26;100.00
10852;BME280;5479;52.046;6.314;2023-02-15T05:47:37;102678.06;;;-0.22;100.00
10852;BME280;5479;52.046;6.314;2023-02-15T05:50:05;102675.50;;;-0.19;100.00
10852;BME280;5479;52.046;6.314;2023-02-15T05:52:34;102668.56;;;-0.18;100.00
10852;BME280;5479;52.046;6.314;2023-02-15T05:55:01;102666.88;;;-0.16;100.00
10852;BME280;5479;52.046;6.314;2023-02-15T05:57:31;102667.66;;;-0.22;100.00
10852;BME280;5479;52.046;6.314;2023-02-15T06:00:00;102667.63;;;-0.25;100.00
10852;BME280;5479;52.046;6.314;2023-02-15T06:02:33;102666.75;;;-0.24;100.00
10852;BME280;5479;52.046;6.314;2023-02-15T06:05:01;102674.69;;;-0.15;100.00
10852;BME280;5479;52.046;6.314;2023-02-15T06:07:30;102676.53;;;-0.09;100.00
10852;BME280;5479;52.046;6.314;2023-02-15T06:09:58;102675.53;;;-0.16;100.00
10852;BME280;5479;52.046;6.314;2023-02-15T06:12:26;102674.69;;;-0.16;100.00
10852;BME280;5479;52.046;6.314;2023-02-15T06:14:54;102677.25;;;-0.18;100.00
10852;BME280;5479;52.046;6.314;2023-02-15T06:17:23;102678.97;;;-0.20;100.00
10852;BME280;5479;52.046;6.314;2023-02-15T06:19:51;102680.69;;;-0.19;100.00
10852;BME280;5479;52.046;6.314;2023-02-15T06:22:19;102678.19;;;-0.13;100.00
10852;BME280;5479;52.046;6.314;2023-02-15T06:24:47;102680.84;;;-0.11;100.00
10852;BME280;5479;52.046;6.314;2023-02-15T06:27:15;102678.28;;;-0.07;100.00
10852;BME280;5479;52.046;6.314;2023-02-15T06:29:43;102679.22;;;-0.02;100.00
10852;BME280;5479;52.046;6.314;2023-02-15T06:32:11;102678.38;;;-0.01;100.00
10852;BME280;5479;52.046;6.314;2023-02-15T06:34:40;102682.72;;;-0.01;100.00
10852;BME280;5479;52.046;6.314;2023-02-15T06:37:08;102691.41;;;-0.01;100.00
10852;BME280;5479;52.046;6.314;2023-02-15T06:39:36;102693.09;;;-0.03;100.00
10852;BME280;5479;52.046;6.314;2023-02-15T06:42:07;102687.06;;;0.00;100.00
10852;BME280;5479;52.046;6.314;2023-02-15T06:44:35;102687.09;;;0.02;100.00
10852;BME280;5479;52.046;6.314;2023-02-15T06:47:03;102678.38;;;-0.01;100.00
10852;BME280;5479;52.046;6.314;2023-02-15T06:49:31;102680.16;;;0.02;100.00
10852;BME280;5479;52.046;6.314;2023-02-15T06:52:00;102676.72;;;0.05;100.00
10852;BME280;5479;52.046;6.314;2023-02-15T06:54:28;102674.94;;;0.02;100.00
10852;BME280;5479;52.046;6.314;2023-02-15T06:56:55;102679.25;;;0.00;100.00
10852;BME280;5479;52.046;6.314;2023-02-15T06:59:23;102670.63;;;0.03;100.00
10852;BME280;5479;52.046;6.314;2023-02-15T07:01:51;102675.84;;;0.06;100.00
10852;BME280;5479;52.046;6.314;2023-02-15T07:04:19;102668.06;;;0.09;100.00
10852;BME280;5479;52.046;6.314;2023-02-15T07:06:47;102662.00;;;0.10;100.00
10852;BME280;5479;52.046;6.314;2023-02-15T07:09:16;102663.03;;;0.21;100.00
10852;BME280;5479;52.046;6.314;2023-02-15T07:11:44;102667.41;;;0.25;100.00
10852;BME280;5479;52.046;6.314;2023-02-15T07:14:30;102660.56;;;0.31;100.00
10852;BME280;5479;52.046;6.314;2023-02-15T07:16:58;102664.88;;;0.29;100.00
10852;BME280;5479;52.046;6.314;2023-02-15T07:19:26;102659.75;;;0.38;100.00
10852;BME280;5479;52.046;6.314;2023-02-15T07:21:54;102668.59;;;0.48;100.00
10852;BME280;5479;52.046;6.314;2023-02-15T07:24:23;102667.81;;;0.58;100.00
10852;BME280;5479;52.046;6.314;2023-02-15T07:26:51;102671.34;;;0.63;100.00
10852;BME280;5479;52.046;6.314;2023-02-15T07:29:19;102667.03;;;0.65;100.00
10852;BME280;5479;52.046;6.314;2023-02-15T07:31:47;102661.84;;;0.68;100.00
10852;BME280;5479;52.046;6.314;2023-02-15T07:34:16;102654.06;;;0.71;100.00
10852;BME280;5479;52.046;6.314;2023-02-15T07:36:45;102660.31;;;0.87;100.00
10852;BME280;5479;52.046;6.314;2023-02-15T07:39:13;102656.97;;;1.03;100.00
10852;BME280;5479;52.046;6.314;2023-02-15T07:41:42;102655.34;;;1.14;100.00
10852;BME280;5479;52.046;6.314;2023-02-15T07:44:11;102654.50;;;1.16;100.00
10852;BME280;5479;52.046;6.314;2023-02-15T07:46:40;102644.16;;;1.26;100.00
10852;BME280;5479;52.046;6.314;2023-02-15T07:49:08;102640.78;;;1.39;100.00
10852;BME280;5479;52.046;6.314;2023-02-15T07:51:35;102626.25;;;1.78;100.00
10852;BME280;5479;52.046;6.314;2023-02-15T07:54:03;102623.78;;;2.15;100.00
10852;BME280;5479;52.046;6.314;2023-02-15T07:56:31;102626.47;;;2.36;100.00
10852;BME280;5479;52.046;6.314;2023-02-15T07:59:01;102620.53;;;2.91;100.00
10852;BME280;5479;52.046;6.314;2023-02-15T08:01:33;102624.00;;;3.19;100.00
10852;BME280;5479;52.046;6.314;2023-02-15T08:04:02;102618.72;;;3.58;100.00
10852;BME280;5479;52.046;6.314;2023-02-15T08:06:32;102609.97;;;3.78;100.00
10852;BME280;5479;52.046;6.314;2023-02-15T08:09:02;102605.47;;;4.16;100.00
10852;BME280;5479;52.046;6.314;2023-02-15T08:11:31;102604.16;;;4.89;100.00
10852;BME280;5479;52.046;6.314;2023-02-15T08:14:09;102598.75;;;5.11;100.00
10852;BME280;5479;52.046;6.314;2023-02-15T08:16:39;102607.69;;;4.85;100.00
10852;BME280;5479;52.046;6.314;2023-02-15T08:19:09;102599.97;;;5.66;100.00
10852;BME280;5479;52.046;6.314;2023-02-15T08:21:39;102596.63;;;5.49;100.00
10852;BME280;5479;52.046;6.314;2023-02-15T08:24:08;102592.69;;;5.92;100.00
10852;BME280;5479;52.046;6.314;2023-02-15T08:26:37;102585.63;;;5.97;100.00
10852;BME280;5479;52.046;6.314;2023-02-15T08:29:05;102581.84;;;6.20;100.00
10852;BME280;5479;52.046;6.314;2023-02-15T08:31:35;102576.38;;;6.36;100.00
10852;BME280;5479;52.046;6.314;2023-02-15T08:34:04;102576.41;;;6.32;100.00
10852;BME280;5479;52.046;6.314;2023-02-15T08:36:33;102573.59;;;6.45;100.00
10852;BME280;5479;52.046;6.314;2023-02-15T08:39:03;102574.69;;;6.31;100.00
10852;BME280;5479;52.046;6.314;2023-02-15T08:41:33;102583.16;;;5.82;100.00
10852;BME280;5479;52.046;6.314;2023-02-15T08:44:03;102585.28;;;5.47;100.00
10852;BME280;5479;52.046;6.314;2023-02-15T08:46:33;102579.19;;;5.43;100.00
10852;BME280;5479;52.046;6.314;2023-02-15T08:49:03;102578.78;;;5.81;100.00
10852;BME280;5479;52.046;6.314;2023-02-15T08:51:33;102573.28;;;6.02;100.00
10852;BME280;5479;52.046;6.314;2023-02-15T08:54:03;102568.16;;;5.93;100.00
10852;BME280;5479;52.046;6.314;2023-02-15T08:56:33;102564.31;;;6.19;100.00
10852;BME280;5479;52.046;6.314;2023-02-15T08:59:02;102558.94;;;6.28;100.00
10852;BME280;5479;52.046;6.314;2023-02-15T09:01:32;102550.31;;;6.76;100.00
10852;BME280;5479;52.046;6.314;2023-02-15T09:04:01;102553.00;;;6.73;100.00
10852;BME280;5479;52.046;6.314;2023-02-15T09:06:32;102550.66;;;7.08;100.00
10852;BME280;5479;52.046;6.314;2023-02-15T09:09:00;102553.66;;;7.38;100.00
10852;BME280;5479;52.046;6.314;2023-02-15T09:11:30;102548.97;;;7.06;100.00
10852;BME280;5479;52.046;6.314;2023-02-15T09:13:59;102547.44;;;7.86;100.00
10852;BME280;5479;52.046;6.314;2023-02-15T09:16:29;102543.22;;;7.76;100.00
10852;BME280;5479;52.046;6.314;2023-02-15T09:18:58;102550.47;;;8.49;100.00
10852;BME280;5479;52.046;6.314;2023-02-15T09:21:28;102553.06;;;8.52;100.00
10852;BME280;5479;52.046;6.314;2023-02-15T09:23:59;102549.56;;;8.87;100.00
10852;BME280;5479;52.046;6.314;2023-02-15T09:26:29;102552.59;;;9.71;100.00
10852;BME280;5479;52.046;6.314;2023-02-15T09:28:58;102540.94;;;9.48;100.00
10852;BME280;5479;52.046;6.314;2023-02-15T09:31:29;102546.06;;;8.49;100.00
10852;BME280;5479;52.046;6.314;2023-02-15T09:33:58;102554.09;;;8.82;100.00
10852;BME280;5479;52.046;6.314;2023-02-15T09:36:28;102550.59;;;9.17;100.00
10852;BME280;5479;52.046;6.314;2023-02-15T09:38:59;102548.75;;;10.14;100.00
10852;BME280;5479;52.046;6.314;2023-02-15T09:41:44;102550.09;;;9.98;100.00
10852;BME280;5479;52.046;6.314;2023-02-15T09:44:27;102547.25;;;10.35;100.00
10852;BME280;5479;52.046;6.314;2023-02-15T09:47:15;102545.03;;;9.59;100.00
10852;BME280;5479;52.046;6.314;2023-02-15T09:49:49;102548.63;;;9.23;100.00
10852;BME280;5479;52.046;6.314;2023-02-15T09:52:39;102535.56;;;10.12;100.00
10852;BME280;5479;52.046;6.314;2023-02-15T09:55:41;102544.50;;;9.78;100.00
10852;BME280;5479;52.046;6.314;2023-02-15T09:58:17;102541.00;;;10.37;100.00
10852;BME280;5479;52.046;6.314;2023-02-15T10:00:56;102533.59;;;9.88;100.00
10852;BME280;5479;52.046;6.314;2023-02-15T10:03:36;102529.09;;;10.50;100.00
10852;BME280;5479;52.046;6.314;2023-02-15T10:06:26;102543.13;;;9.64;100.00
10852;BME280;5479;52.046;6.314;2023-02-15T10:09:10;102534.97;;;10.03;100.00
10852;BME280;5479;52.046;6.314;2023-02-15T10:11:57;102532.66;;;9.91;100.00
10852;BME280;5479;52.046;6.314;2023-02-15T10:17:29;102527.53;;;10.71;100.00
10852;BME280;5479;52.046;6.314;2023-02-15T10:20:15;102537.78;;;9.97;100.00
10852;BME280;5479;52.046;6.314;2023-02-15T10:22:58;102537.22;;;9.86;100.00
10852;BME280;5479;52.046;6.314;2023-02-15T10:25:36;102528.50;;;10.13;100.00
10852;BME280;5479;52.046;6.314;2023-02-15T10:28:15;102526.63;;;10.44;100.00
10852;BME280;5479;52.046;6.314;2023-02-15T10:30:47;102526.63;;;10.98;100.00
10852;BME280;5479;52.046;6.314;2023-02-15T10:33:30;102517.63;;;11.04;98.22
10852;BME280;5479;52.046;6.314;2023-02-15T10:36:08;102518.41;;;10.53;99.24
10852;BME280;5479;52.046;6.314;2023-02-15T10:38:41;102524.06;;;10.43;100.00
10852;BME280;5479;52.046;6.314;2023-02-15T10:41:19;102527.59;;;11.22;100.00
10852;BME280;5479;52.046;6.314;2023-02-15T10:44:05;102522.19;;;11.74;94.51
10852;BME280;5479;52.046;6.314;2023-02-15T10:46:55;102523.72;;;11.80;91.05
10852;BME280;5479;52.046;6.314;2023-02-15T10:49:45;102529.50;;;12.37;86.81
10852;BME280;5479;52.046;6.314;2023-02-15T10:52:25;102512.22;;;13.12;79.93
10852;BME280;5479;52.046;6.314;2023-02-15T10:55:06;102506.59;;;14.16;71.76
10852;BME280;5479;52.046;6.314;2023-02-15T10:57:46;102506.59;;;13.98;70.04
10852;BME280;5479;52.046;6.314;2023-02-15T11:00:22;102503.56;;;14.24;67.51
10852;BME280;5479;52.046;6.314;2023-02-15T11:03:05;102501.41;;;14.50;65.11
10852;BME280;5479;52.046;6.314;2023-02-15T11:05:45;102502.50;;;14.09;68.63
10852;BME280;5479;52.046;6.314;2023-02-15T11:08:17;102500.97;;;13.85;69.89
10852;BME280;5479;52.046;6.314;2023-02-15T11:10:48;102501.50;;;14.66;67.78
10852;BME280;5479;52.046;6.314;2023-02-15T11:13:19;102504.47;;;15.64;62.68
10852;BME280;5479;52.046;6.314;2023-02-15T11:15:52;102501.41;;;15.88;59.39
10852;BME280;5479;52.046;6.314;2023-02-15T11:18:25;102487.28;;;15.53;58.78
10852;BME280;5479;52.046;6.314;2023-02-15T11:20:58;102491.25;;;15.44;59.97
10852;BME280;5479;52.046;6.314;2023-02-15T11:23:28;102486.03;;;14.38;61.29
10852;BME280;5479;52.046;6.314;2023-02-15T11:25:57;102487.16;;;14.52;62.77
10852;BME280;5479;52.046;6.314;2023-02-15T11:28:31;102486.97;;;14.73;61.88
10852;BME280;5479;52.046;6.314;2023-02-15T11:31:18;102478.03;;;15.76;60.22
10852;BME280;5479;52.046;6.314;2023-02-15T11:33:48;102488.13;;;16.64;56.65
10852;BME280;5479;52.046;6.314;2023-02-15T11:36:21;102481.53;;;17.59;53.82
10852;BME280;5479;52.046;6.314;2023-02-15T11:38:54;102471.06;;;18.52;50.62
10852;BME280;5479;52.046;6.314;2023-02-15T11:41:28;102470.41;;;18.07;51.35
10852;BME280;5479;52.046;6.314;2023-02-15T11:44:02;102465.66;;;18.25;50.24
10852;BME280;5479;52.046;6.314;2023-02-15T11:46:34;102464.75;;;18.92;47.52
10852;BME280;5479;52.046;6.314;2023-02-15T11:49:07;102460.59;;;18.21;48.46
10852;BME280;5479;52.046;6.314;2023-02-15T11:51:37;102467.91;;;17.48;49.18
10852;BME280;5479;52.046;6.314;2023-02-15T11:54:05;102464.66;;;16.69;51.61
10852;BME280;5479;52.046;6.314;2023-02-15T11:56:32;102454.00;;;16.22;53.94
10852;BME280;5479;52.046;6.314;2023-02-15T11:59:04;102451.41;;;17.12;53.21
10852;BME280;5479;52.046;6.314;2023-02-15T12:01:40;102452.16;;;17.00;52.91
10852;BME280;5479;52.046;6.314;2023-02-15T12:04:16;102446.03;;;15.74;56.07
10852;BME280;5479;52.046;6.314;2023-02-15T12:06:49;102452.09;;;15.28;58.25
10852;BME280;5479;52.046;6.314;2023-02-15T12:09:25;102446.75;;;15.78;57.90
10852;BME280;5479;52.046;6.314;2023-02-15T12:12:19;102433.97;;;15.51;57.83
10852;BME280;5479;52.046;6.314;2023-02-15T12:14:49;102427.88;;;16.12;57.32
10852;BME280;5479;52.046;6.314;2023-02-15T12:17:21;102428.81;;;15.64;58.34
10852;BME280;5479;52.046;6.314;2023-02-15T12:19:50;102429.16;;;15.74;58.32
10852;BME280;5479;52.046;6.314;2023-02-15T12:22:25;102421.22;;;15.39;59.14
10852;BME280;5479;52.046;6.314;2023-02-15T12:24:55;102419.03;;;14.80;59.39
10852;BME280;5479;52.046;6.314;2023-02-15T12:27:26;102413.09;;;13.85;64.27
10852;BME280;5479;52.046;6.314;2023-02-15T12:29:57;102420.94;;;13.88;66.02
10852;BME280;5479;52.046;6.314;2023-02-15T12:32:31;102408.66;;;13.85;69.37
10852;BME280;5479;52.046;6.314;2023-02-15T12:35:06;102413.81;;;13.12;70.40
10852;BME280;5479;52.046;6.314;2023-02-15T12:37:37;102409.66;;;12.85;77.19
10852;BME280;5479;52.046;6.314;2023-02-15T12:40:19;102409.75;;;12.84;80.65
10852;BME280;5479;52.046;6.314;2023-02-15T12:42:47;102399.81;;;13.27;78.05
10852;BME280;5479;52.046;6.314;2023-02-15T12:45:24;102395.56;;;13.23;77.64
10852;BME280;5479;52.046;6.314;2023-02-15T12:48:14;102395.28;;;13.29;76.98
10852;BME280;5479;52.046;6.314;2023-02-15T12:50:44;102392.25;;;12.78;76.46
10852;BME280;5479;52.046;6.314;2023-02-15T12:53:15;102395.25;;;12.70;83.85
10852;BME280;5479;52.046;6.314;2023-02-15T12:55:50;102388.22;;;12.48;89.06
10852;BME280;5479;52.046;6.314;2023-02-15T12:58:21;102385.81;;;12.22;92.12
10852;BME280;5479;52.046;6.314;2023-02-15T13:01:03;102382.34;;;12.20;94.80
10852;BME280;5479;52.046;6.314;2023-02-15T13:03:34;102383.50;;;12.13;93.46
10852;BME280;5479;52.046;6.314;2023-02-15T13:06:03;102382.41;;;11.96;94.79
10852;BME280;5479;52.046;6.314;2023-02-15T13:08:37;102388.13;;;11.86;97.50
10852;BME280;5479;52.046;6.314;2023-02-15T13:11:07;102391.09;;;11.78;99.46
10852;BME280;5479;52.046;6.314;2023-02-15T13:13:47;102391.09;;;12.00;96.70
10852;BME280;5479;52.046;6.314;2023-02-15T13:16:24;102385.00;;;12.20;97.77
10852;BME280;5479;52.046;6.314;2023-02-15T13:18:57;102381.09;;;12.28;97.67
10852;BME280;5479;52.046;6.314;2023-02-15T13:21:32;102373.16;;;12.48;95.74
10852;BME280;5479;52.046;6.314;2023-02-15T13:24:05;102375.06;;;12.45;93.08
10852;BME280;5479;52.046;6.314;2023-02-15T13:26:35;102373.63;;;12.58;91.95
10852;BME280;5479;52.046;6.314;2023-02-15T13:29:07;102371.75;;;12.60;91.49